createdAt,value
2022-10-07T00:01:04.128Z,5.95
2022-10-07T00:03:32.526Z,6.30
2022-10-07T00:06:13.646Z,5.93
2022-10-07T00:08:43.800Z,5.97
2022-10-07T00:11:16.588Z,5.50
2022-10-07T00:13:45.705Z,5.40
2022-10-07T00:16:18.308Z,6.15
2022-10-07T00:18:45.950Z,5.72
2022-10-07T00:21:14.922Z,5.95
2022-10-07T00:23:43.569Z,5.72
2022-10-07T00:26:14.337Z,6.05
2022-10-07T00:28:42.379Z,5.53
2022-10-07T00:31:17.089Z,6.18
2022-10-07T00:33:45.193Z,5.78
2022-10-07T00:36:17.638Z,5.93
2022-10-07T00:38:45.573Z,6.00
2022-10-07T00:41:26.328Z,5.10
2022-10-07T00:43:54.091Z,5.90
2022-10-07T00:46:40.279Z,5.15
2022-10-07T00:49:12.909Z,5.43
2022-10-07T00:51:41.370Z,6.03
2022-10-07T00:54:14.871Z,5.68
2022-10-07T00:56:42.708Z,6.00
2022-10-07T00:59:11.264Z,5.72
2022-10-07T01:01:41.066Z,5.40
2022-10-07T01:04:15.160Z,6.60
2022-10-07T01:06:42.967Z,6.80
2022-10-07T01:09:10.966Z,6.97
2022-10-07T01:12:00.862Z,6.93
2022-10-07T01:14:34.351Z,7.00
2022-10-07T01:17:09.435Z,6.57
2022-10-07T01:19:46.005Z,7.45
2022-10-07T01:22:20.243Z,5.90
2022-10-07T01:24:59.948Z,6.05
2022-10-07T01:27:27.837Z,6.15
2022-10-07T01:29:59.386Z,6.12
2022-10-07T01:32:36.836Z,5.80
2022-10-07T01:35:11.087Z,5.72
2022-10-07T01:37:43.445Z,5.87
2022-10-07T01:40:15.119Z,5.60
2022-10-07T01:42:43.291Z,6.30
2022-10-07T01:45:12.132Z,5.43
2022-10-07T01:47:39.949Z,5.50
2022-10-07T01:50:14.761Z,5.75
2022-10-07T01:53:12.941Z,6.15
2022-10-07T01:56:01.303Z,5.47
2022-10-07T01:58:42.286Z,5.72
2022-10-07T02:01:28.644Z,5.78
2022-10-07T02:03:56.298Z,5.70
2022-10-07T02:06:40.072Z,5.72
2022-10-07T02:09:33.333Z,5.62
2022-10-07T02:12:09.160Z,5.95
2022-10-07T02:14:41.357Z,5.85
2022-10-07T02:17:17.024Z,6.70
2022-10-07T02:19:54.023Z,6.03
2022-10-07T02:22:23.091Z,5.65
2022-10-07T02:24:55.289Z,6.12
2022-10-07T02:27:25.577Z,5.82
2022-10-07T02:29:54.556Z,5.80
2022-10-07T02:32:23.559Z,5.80
2022-10-07T02:34:54.651Z,6.37
2022-10-07T02:37:26.481Z,5.20
2022-10-07T02:39:55.224Z,5.78
2022-10-07T02:42:35.618Z,6.00
2022-10-07T02:45:16.842Z,5.78
2022-10-07T02:47:51.478Z,5.47
2022-10-07T02:50:22.931Z,5.80
2022-10-07T02:52:52.911Z,6.30
2022-10-07T02:55:23.206Z,6.30
2022-10-07T02:57:53.508Z,6.07
2022-10-07T03:00:21.123Z,6.20
2022-10-07T03:02:57.027Z,6.35
2022-10-07T03:05:26.102Z,6.35
2022-10-07T03:08:06.368Z,6.47
2022-10-07T03:10:34.519Z,6.62
2022-10-07T03:13:04.833Z,6.40
2022-10-07T03:15:39.730Z,5.93
2022-10-07T03:18:26.299Z,6.85
2022-10-07T03:20:55.514Z,6.90
2022-10-07T03:23:24.583Z,6.97
2022-10-07T03:25:53.530Z,6.60
2022-10-07T03:28:23.049Z,6.80
2022-10-07T03:30:51.374Z,6.85
2022-10-07T03:33:21.258Z,6.93
2022-10-07T03:35:48.873Z,6.82
2022-10-07T03:38:16.624Z,7.00
2022-10-07T03:40:44.444Z,6.37
2022-10-07T03:43:12.321Z,6.37
2022-10-07T03:45:44.504Z,7.25
2022-10-07T03:48:12.020Z,7.25
2022-10-07T03:50:39.870Z,6.90
2022-10-07T03:53:07.974Z,7.97
2022-10-07T03:55:35.336Z,7.15
2022-10-07T03:58:02.974Z,8.18
2022-10-07T04:00:30.346Z,7.80
2022-10-07T04:02:58.468Z,7.40
2022-10-07T04:05:25.851Z,6.95
2022-10-07T04:07:54.321Z,7.45
2022-10-07T04:10:22.046Z,7.25
2022-10-07T04:12:51.271Z,8.00
2022-10-07T04:15:19.583Z,7.57
2022-10-07T04:17:48.712Z,7.72
2022-10-07T04:20:17.182Z,7.90
2022-10-07T04:22:44.550Z,7.68
2022-10-07T04:25:31.377Z,7.80
2022-10-07T04:28:00.540Z,7.47
2022-10-07T04:30:34.549Z,8.07
2022-10-07T04:33:02.862Z,7.18
2022-10-07T04:35:30.945Z,7.55
2022-10-07T04:37:58.769Z,8.23
2022-10-07T04:40:27.519Z,7.62
2022-10-07T04:43:14.259Z,8.57
2022-10-07T04:45:41.782Z,7.75
2022-10-07T04:48:09.351Z,8.43
2022-10-07T04:50:40.369Z,8.73
2022-10-07T04:53:09.186Z,7.72
2022-10-07T04:55:41.456Z,8.15
2022-10-07T04:58:09.204Z,8.65
2022-10-07T05:00:44.563Z,8.30
2022-10-07T05:03:16.187Z,7.97
2022-10-07T05:05:45.800Z,8.68
2022-10-07T05:08:14.954Z,8.13
2022-10-07T05:10:42.758Z,9.63
2022-10-07T05:13:12.967Z,10.35
2022-10-07T05:15:51.912Z,10.25
2022-10-07T05:18:20.597Z,10.65
2022-10-07T05:20:48.922Z,10.80
2022-10-07T05:23:19.080Z,9.77
2022-10-07T05:25:46.866Z,9.07
2022-10-07T05:28:15.344Z,10.07
2022-10-07T05:30:42.788Z,9.73
2022-10-07T05:33:10.763Z,10.27
2022-10-07T05:35:38.699Z,8.95
2022-10-07T05:38:06.070Z,9.60
2022-10-07T05:40:33.739Z,9.77
2022-10-07T05:43:01.233Z,10.10
2022-10-07T05:45:31.308Z,10.48
2022-10-07T05:47:59.171Z,10.85
2022-10-07T05:50:26.732Z,10.55
2022-10-07T05:52:54.447Z,11.05
2022-10-07T05:55:22.292Z,10.57
2022-10-07T05:57:49.733Z,9.70
2022-10-07T06:00:17.192Z,10.77
2022-10-07T06:02:46.500Z,10.70
2022-10-07T06:05:14.534Z,10.68
2022-10-07T06:07:41.982Z,11.20
2022-10-07T06:10:28.523Z,10.48
2022-10-07T06:13:08.064Z,10.38
2022-10-07T06:15:36.793Z,11.25
2022-10-07T06:18:04.373Z,11.23
2022-10-07T06:20:32.161Z,11.10
2022-10-07T06:23:00.046Z,11.35
2022-10-07T06:25:27.443Z,11.65
2022-10-07T06:27:58.353Z,10.95
2022-10-07T06:30:27.617Z,10.80
2022-10-07T06:32:56.341Z,10.85
2022-10-07T06:35:23.708Z,10.25
2022-10-07T06:37:52.685Z,11.20
2022-10-07T06:40:20.366Z,10.98
2022-10-07T06:42:47.955Z,9.95
2022-10-07T06:45:16.026Z,10.48
2022-10-07T06:47:43.984Z,10.10
2022-10-07T06:50:11.799Z,11.75
2022-10-07T06:52:43.276Z,11.02
2022-10-07T06:55:11.577Z,12.65
2022-10-07T06:57:46.848Z,12.07
2022-10-07T07:00:16.015Z,10.90
2022-10-07T07:02:44.416Z,10.45
2022-10-07T07:05:15.698Z,11.95
2022-10-07T07:07:43.995Z,11.02
2022-10-07T07:10:12.461Z,11.23
2022-10-07T07:12:40.933Z,10.80
2022-10-07T07:15:09.650Z,11.82
2022-10-07T07:17:37.768Z,10.77
2022-10-07T07:20:06.250Z,9.85
2022-10-07T07:22:33.641Z,10.15
2022-10-07T07:25:01.286Z,10.80
2022-10-07T07:27:29.253Z,9.85
2022-10-07T07:29:57.754Z,9.07
2022-10-07T07:32:25.753Z,9.15
2022-10-07T07:37:25.803Z,8.32
2022-10-07T07:39:53.536Z,9.25
2022-10-07T07:42:21.743Z,8.43
2022-10-07T07:44:50.093Z,8.95
2022-10-07T07:47:17.799Z,8.23
2022-10-07T07:49:46.081Z,8.00
2022-10-07T07:52:15.095Z,7.37
2022-10-07T07:54:43.405Z,8.32
2022-10-07T07:57:11.290Z,8.20
2022-10-07T07:59:39.256Z,8.13
2022-10-07T08:02:07.826Z,8.43
2022-10-07T08:04:36.127Z,8.57
2022-10-07T08:07:04.019Z,7.97
2022-10-07T08:09:31.996Z,7.65
2022-10-07T08:12:00.519Z,7.53
2022-10-07T08:14:28.186Z,6.97
2022-10-07T08:16:57.626Z,7.18
2022-10-07T08:19:26.406Z,7.65
2022-10-07T08:21:53.973Z,7.00
2022-10-07T08:24:25.776Z,6.55
2022-10-07T08:26:56.249Z,6.72
2022-10-07T08:29:24.004Z,5.35
2022-10-07T08:31:51.992Z,5.60
2022-10-07T08:34:19.562Z,5.68
2022-10-07T08:36:48.654Z,5.78
2022-10-07T08:39:16.259Z,5.53
2022-10-07T08:42:08.564Z,5.47
2022-10-07T08:44:39.732Z,5.90
2022-10-07T08:47:43.936Z,6.40
2022-10-07T08:50:19.089Z,5.87
2022-10-07T08:52:53.879Z,5.90
2022-10-07T08:55:33.223Z,5.97
2022-10-07T08:58:09.030Z,5.85
2022-10-07T09:01:01.317Z,6.32
2022-10-07T09:03:31.796Z,6.10
2022-10-07T09:05:59.771Z,6.90
2022-10-07T09:08:38.099Z,6.68
2022-10-07T09:11:15.831Z,6.93
2022-10-07T09:13:51.051Z,6.57
2022-10-07T09:16:22.339Z,6.55
2022-10-07T09:18:59.691Z,7.30
2022-10-07T09:21:45.642Z,6.30
2022-10-07T09:24:23.193Z,7.53
2022-10-07T09:26:59.039Z,6.55
2022-10-07T09:29:30.400Z,7.55
2022-10-07T09:31:58.286Z,7.10
2022-10-07T09:34:29.771Z,7.32
2022-10-07T09:37:09.833Z,8.02
2022-10-07T09:39:37.954Z,7.57
2022-10-07T09:42:08.849Z,7.72
2022-10-07T09:44:36.580Z,6.90
2022-10-07T09:47:22.882Z,7.60
2022-10-07T09:49:59.669Z,7.70
2022-10-07T09:52:29.306Z,6.72
2022-10-07T09:55:02.262Z,6.47
2022-10-07T09:57:33.962Z,7.87
2022-10-07T10:00:13.659Z,6.50
2022-10-07T10:02:44.554Z,6.40
2022-10-07T10:05:25.691Z,5.43
2022-10-07T10:07:57.284Z,5.03
2022-10-07T10:10:30.397Z,5.97
2022-10-07T10:13:00.227Z,5.40
2022-10-07T10:15:42.648Z,5.07
2022-10-07T10:18:37.857Z,5.50
2022-10-07T10:21:29.821Z,5.87
2022-10-07T10:23:59.729Z,5.62
2022-10-07T10:26:48.879Z,4.25
2022-10-07T10:29:35.746Z,5.00
2022-10-07T10:32:11.202Z,5.30
2022-10-07T10:35:00.237Z,4.10
2022-10-07T10:37:41.753Z,4.55
2022-10-07T10:40:21.495Z,4.10
2022-10-07T10:43:07.468Z,3.95
2022-10-07T10:45:40.134Z,4.10
2022-10-07T10:48:29.233Z,3.90
2022-10-07T10:51:10.386Z,3.92
2022-10-07T10:54:10.398Z,3.90
2022-10-07T10:56:50.132Z,4.10
2022-10-07T11:00:01.857Z,4.37
2022-10-07T11:02:38.558Z,4.03
2022-10-07T11:05:38.760Z,3.90
2022-10-07T11:08:20.998Z,3.70
2022-10-07T11:10:59.561Z,3.87
2022-10-07T11:13:54.272Z,3.72
2022-10-07T11:16:27.871Z,3.80
2022-10-07T11:19:00.825Z,3.55
2022-10-07T11:21:41.459Z,3.97
2022-10-07T11:24:14.997Z,3.90
2022-10-07T11:26:45.260Z,3.85
2022-10-07T11:30:01.112Z,3.78
2022-10-07T11:32:34.252Z,3.83
2022-10-07T11:35:34.024Z,3.60
2022-10-07T11:38:14.757Z,3.58
2022-10-07T11:40:59.892Z,3.40
2022-10-07T11:43:46.559Z,3.50
2022-10-07T11:46:24.787Z,3.28
2022-10-07T11:49:03.670Z,3.00
2022-10-07T11:51:35.452Z,3.22
2022-10-07T11:54:06.665Z,2.78
2022-10-07T11:56:44.795Z,3.00
2022-10-07T11:59:48.048Z,3.12
2022-10-07T12:02:28.076Z,3.22
2022-10-07T12:04:57.498Z,3.92
2022-10-07T12:07:37.010Z,3.45
2022-10-07T12:10:07.417Z,4.82
2022-10-07T12:12:47.472Z,130.00
2022-10-07T12:15:35.369Z,25.55
2022-10-07T12:18:05.972Z,13.48
2022-10-07T12:20:42.957Z,10.37
2022-10-07T12:23:19.588Z,3.83
2022-10-07T12:25:59.970Z,4.28
2022-10-07T12:28:34.952Z,3.37
2022-10-07T12:31:05.253Z,3.05
2022-10-07T12:33:56.256Z,3.58
2022-10-07T12:36:23.926Z,3.55
2022-10-07T12:38:57.599Z,3.15
2022-10-07T12:41:28.095Z,3.42
2022-10-07T12:44:14.197Z,3.10
2022-10-07T12:46:56.561Z,3.62
2022-10-07T12:52:05.537Z,3.40
2022-10-07T12:54:37.849Z,3.37
2022-10-07T12:57:12.252Z,3.10
2022-10-07T13:00:01.033Z,3.10
2022-10-07T13:02:31.668Z,3.28
2022-10-07T13:05:17.913Z,3.08
2022-10-07T13:08:00.314Z,3.12
2022-10-07T13:10:50.471Z,3.05
2022-10-07T13:13:50.860Z,4.03
2022-10-07T13:16:31.761Z,3.83
2022-10-07T13:19:16.068Z,3.30
2022-10-07T13:21:57.730Z,3.17
2022-10-07T13:24:28.494Z,2.95
2022-10-07T13:26:56.527Z,3.42
2022-10-07T13:29:32.894Z,3.42
2022-10-07T13:32:09.721Z,3.40
2022-10-07T13:34:37.859Z,3.17
2022-10-07T13:37:30.184Z,3.55
2022-10-07T13:39:59.044Z,3.30
2022-10-07T13:42:28.812Z,3.70
2022-10-07T13:45:03.086Z,3.72
2022-10-07T13:47:33.908Z,3.45
2022-10-07T13:50:02.617Z,3.30
2022-10-07T13:52:36.996Z,3.35
2022-10-07T13:55:28.568Z,3.85
2022-10-07T13:57:57.345Z,3.70
2022-10-07T14:00:25.552Z,3.53
2022-10-07T14:02:53.551Z,3.53
2022-10-07T14:05:30.515Z,3.47
2022-10-07T14:08:00.236Z,3.03
2022-10-07T14:10:29.898Z,3.12
2022-10-07T14:13:03.882Z,3.00
2022-10-07T14:15:34.825Z,3.50
2022-10-07T14:18:05.649Z,3.70
2022-10-07T14:20:42.314Z,3.80
2022-10-07T14:23:32.834Z,3.10
2022-10-07T14:26:01.714Z,3.37
2022-10-07T14:28:30.917Z,2.90
2022-10-07T14:31:23.062Z,2.70
2022-10-07T14:37:03.256Z,18.00
2022-10-07T14:39:42.374Z,4.47
2022-10-07T14:42:27.800Z,3.50
2022-10-07T14:44:56.812Z,5.20
2022-10-07T14:47:26.113Z,3.42
2022-10-07T14:49:55.803Z,3.40
2022-10-07T14:52:35.447Z,3.20
2022-10-07T14:55:06.787Z,3.10
2022-10-07T14:57:34.693Z,2.90
2022-10-07T15:00:02.032Z,3.20
2022-10-07T15:02:29.398Z,7.18
2022-10-07T15:04:56.967Z,7.25
2022-10-07T15:07:24.872Z,4.65
2022-10-07T15:09:52.447Z,3.85
2022-10-07T15:12:20.024Z,3.95
2022-10-07T15:14:47.299Z,2.97
2022-10-07T15:17:15.280Z,3.10
2022-10-07T15:19:42.936Z,3.50
2022-10-07T15:22:10.239Z,2.97
2022-10-07T15:24:37.561Z,3.37
2022-10-07T15:27:07.089Z,3.47
2022-10-07T15:29:34.365Z,3.28
2022-10-07T15:32:01.695Z,3.70
2022-10-07T15:34:29.269Z,3.20
2022-10-07T15:36:56.652Z,3.03
2022-10-07T15:39:23.937Z,3.65
2022-10-07T15:41:51.539Z,3.22
2022-10-07T15:44:21.980Z,4.05
2022-10-07T15:46:52.924Z,3.85
2022-10-07T15:49:20.557Z,3.87
2022-10-07T15:51:48.367Z,4.00
2022-10-07T15:54:15.844Z,4.70
2022-10-07T15:56:43.939Z,4.80
2022-10-07T15:59:11.304Z,5.12
2022-10-07T16:01:38.710Z,5.03
2022-10-07T16:04:11.578Z,4.87
2022-10-07T16:06:39.041Z,6.03
2022-10-07T16:09:06.703Z,6.50
2022-10-07T16:11:34.567Z,7.10
2022-10-07T16:14:02.384Z,5.53
2022-10-07T16:16:31.404Z,6.60
2022-10-07T16:19:00.006Z,5.40
2022-10-07T16:21:39.060Z,5.57
2022-10-07T16:24:13.586Z,6.28
2022-10-07T16:26:41.531Z,7.75
2022-10-07T16:29:32.810Z,8.35
2022-10-07T16:32:00.522Z,7.95
2022-10-07T16:34:28.699Z,9.77
2022-10-07T16:36:57.470Z,6.97
2022-10-07T16:39:25.220Z,7.75
2022-10-07T16:41:53.143Z,6.82
2022-10-07T16:44:21.145Z,6.37
2022-10-07T16:46:49.168Z,6.12
2022-10-07T16:49:18.259Z,6.87
2022-10-07T16:51:45.977Z,6.60
2022-10-07T16:54:15.939Z,7.07
2022-10-07T16:56:49.016Z,6.85
2022-10-07T16:59:23.727Z,6.20
2022-10-07T17:01:54.928Z,5.65
2022-10-07T17:04:23.286Z,5.10
2022-10-07T17:06:50.616Z,6.30
2022-10-07T17:09:18.519Z,6.22
2022-10-07T17:11:46.430Z,6.70
2022-10-07T17:14:19.274Z,6.50
2022-10-07T17:16:49.717Z,6.05
2022-10-07T17:19:20.402Z,6.43
2022-10-07T17:21:49.639Z,7.37
2022-10-07T17:24:18.336Z,8.10
2022-10-07T17:26:46.004Z,9.02
2022-10-07T17:29:18.083Z,9.05
2022-10-07T17:31:48.183Z,8.70
2022-10-07T17:34:16.644Z,10.02
2022-10-07T17:36:43.993Z,10.57
2022-10-07T17:39:11.992Z,10.05
2022-10-07T17:41:39.857Z,10.93
2022-10-07T17:44:09.375Z,12.20
2022-10-07T17:46:39.119Z,14.07
2022-10-07T17:49:09.671Z,13.18
2022-10-07T17:51:37.626Z,15.45
2022-10-07T17:54:05.999Z,16.65
2022-10-07T17:56:37.301Z,16.90
2022-10-07T17:59:05.375Z,15.10
2022-10-07T18:01:34.353Z,13.93
2022-10-07T18:04:07.674Z,14.20
2022-10-07T18:06:37.406Z,15.27
2022-10-07T18:09:07.067Z,14.93
2022-10-07T18:11:53.103Z,15.20
2022-10-07T18:14:39.186Z,15.43
2022-10-07T18:17:08.100Z,14.10
2022-10-07T18:19:35.936Z,17.40
2022-10-07T18:22:03.437Z,22.23
2022-10-07T18:24:30.859Z,24.98
2022-10-07T18:27:00.786Z,28.85
2022-10-07T18:29:33.322Z,28.67
2022-10-07T18:32:01.136Z,28.87
2022-10-07T18:34:28.584Z,24.90
2022-10-07T18:36:57.263Z,22.08
2022-10-07T18:39:27.625Z,21.92
2022-10-07T18:41:55.622Z,19.27
2022-10-07T18:44:23.189Z,18.70
2022-10-07T18:46:51.218Z,18.85
2022-10-07T18:49:18.788Z,15.73
2022-10-07T18:51:47.155Z,17.33
2022-10-07T18:54:14.825Z,18.08
2022-10-07T18:56:42.436Z,20.30
2022-10-07T18:59:12.973Z,22.25
2022-10-07T19:01:41.074Z,24.12
2022-10-07T19:04:09.476Z,26.20
2022-10-07T19:06:39.937Z,29.75
2022-10-07T19:09:10.501Z,25.33
2022-10-07T19:11:37.886Z,22.05
2022-10-07T19:14:05.281Z,20.02
2022-10-07T19:16:36.160Z,18.62
2022-10-07T19:19:05.846Z,18.02
2022-10-07T19:21:34.332Z,16.50
2022-10-07T19:24:02.093Z,16.48
2022-10-07T19:26:33.891Z,16.40
2022-10-07T19:29:02.062Z,17.05
2022-10-07T19:31:35.363Z,16.42
2022-10-07T19:34:05.417Z,16.20
2022-10-07T19:36:35.177Z,15.50
2022-10-07T19:39:04.324Z,19.48
2022-10-07T19:41:33.117Z,19.48
2022-10-07T19:44:00.516Z,21.12
2022-10-07T19:46:30.291Z,20.17
2022-10-07T19:48:59.113Z,20.58
2022-10-07T19:51:28.498Z,19.95
2022-10-07T19:53:57.384Z,18.77
2022-10-07T19:56:28.076Z,18.35
2022-10-07T19:59:00.352Z,17.10
2022-10-07T20:04:02.991Z,15.45
2022-10-07T20:06:30.534Z,14.60
2022-10-07T20:08:58.348Z,15.38
2022-10-07T20:11:27.692Z,15.85
2022-10-07T20:13:55.023Z,16.30
2022-10-07T20:16:27.495Z,16.08
2022-10-07T20:21:26.012Z,18.90
2022-10-07T20:23:53.878Z,26.33
2022-10-07T20:26:24.236Z,22.75
2022-10-07T20:28:54.000Z,27.85
2022-10-07T20:31:23.679Z,21.67
2022-10-07T20:33:52.991Z,19.12
2022-10-07T20:36:31.314Z,18.27
2022-10-07T20:39:25.337Z,16.62
2022-10-07T20:42:12.256Z,15.05
2022-10-07T20:44:39.636Z,14.87
2022-10-07T20:47:08.789Z,14.52
2022-10-07T20:49:38.587Z,13.70
2022-10-07T20:52:12.400Z,13.65
2022-10-07T20:54:40.219Z,13.25
2022-10-07T20:57:07.813Z,12.13
2022-10-07T20:59:35.103Z,12.63
2022-10-07T21:02:07.252Z,18.08
2022-10-07T21:04:36.750Z,22.05
2022-10-07T21:07:04.431Z,25.98
2022-10-07T21:09:36.150Z,27.85
2022-10-07T21:12:07.387Z,27.33
2022-10-07T21:14:35.859Z,18.90
2022-10-07T21:17:04.876Z,16.98
2022-10-07T21:19:34.074Z,16.33
2022-10-07T21:22:03.195Z,15.27
2022-10-07T21:24:34.195Z,14.52
2022-10-07T21:27:03.513Z,21.73
2022-10-07T21:29:31.379Z,35.63
2022-10-07T21:32:00.033Z,34.78
2022-10-07T21:34:29.699Z,39.08
2022-10-07T21:36:57.629Z,37.70
2022-10-07T21:39:26.318Z,36.17
2022-10-07T21:41:54.615Z,36.00
2022-10-07T21:44:21.954Z,29.37
2022-10-07T21:46:49.523Z,33.92
2022-10-07T21:49:17.409Z,32.00
2022-10-07T21:51:44.711Z,27.25
2022-10-07T21:54:16.511Z,20.85
2022-10-07T21:56:46.091Z,15.25
2022-10-07T21:59:14.163Z,14.23
2022-10-07T22:01:42.612Z,12.32
2022-10-07T22:04:16.202Z,13.75
2022-10-07T22:07:02.664Z,13.73
2022-10-07T22:09:31.113Z,12.60
2022-10-07T22:11:58.661Z,15.15
2022-10-07T22:14:41.291Z,18.75
2022-10-07T22:17:08.918Z,20.02
2022-10-07T22:19:36.234Z,15.60
2022-10-07T22:22:04.483Z,17.05
2022-10-07T22:24:32.266Z,13.90
2022-10-07T22:27:00.200Z,13.75
2022-10-07T22:29:28.291Z,13.60
2022-10-07T22:31:55.862Z,13.65
2022-10-07T22:34:50.331Z,14.48
2022-10-07T22:37:18.172Z,13.52
2022-10-07T22:39:45.529Z,13.50
2022-10-07T22:42:12.828Z,18.85
2022-10-07T22:44:40.420Z,19.55
2022-10-07T22:47:07.730Z,20.73
2022-10-07T22:49:35.014Z,18.80
2022-10-07T22:52:02.646Z,17.70
2022-10-07T22:54:30.104Z,18.23
2022-10-07T22:56:57.419Z,17.30
2022-10-07T22:59:24.951Z,17.45
2022-10-07T23:01:52.923Z,17.90
2022-10-07T23:04:21.332Z,16.92
2022-10-07T23:06:49.012Z,15.43
2022-10-07T23:09:16.587Z,13.68
2022-10-07T23:11:43.874Z,13.82
2022-10-07T23:14:12.551Z,13.68
2022-10-07T23:16:39.830Z,13.68
2022-10-07T23:19:08.608Z,12.65
2022-10-07T23:21:36.995Z,13.25
2022-10-07T23:24:07.765Z,12.05
2022-10-07T23:26:36.788Z,11.93
2022-10-07T23:29:04.105Z,12.48
2022-10-07T23:31:32.565Z,11.55
2022-10-07T23:34:02.150Z,12.57
2022-10-07T23:36:29.742Z,12.10
2022-10-07T23:38:59.459Z,12.35
2022-10-07T23:41:28.432Z,11.80
2022-10-07T23:43:57.441Z,12.20
2022-10-07T23:46:26.286Z,11.65
2022-10-07T23:48:54.431Z,11.85
2022-10-07T23:51:24.297Z,11.23
2022-10-07T23:53:51.628Z,12.05
2022-10-07T23:56:19.246Z,12.37
2022-10-07T23:58:46.696Z,12.80
